createdAt,value
2023-05-05T00:01:06.278Z,101042.95
2023-05-05T00:06:08.227Z,101045.02
2023-05-05T00:11:09.900Z,101044.52
2023-05-05T00:16:11.419Z,101043.17
2023-05-05T00:21:13.285Z,101038.05
2023-05-05T00:26:14.776Z,101031.71
2023-05-05T00:31:16.948Z,101032.58
2023-05-05T00:36:18.592Z,101033.45
2023-05-05T00:41:20.383Z,101035.19
2023-05-05T00:46:28.024Z,101033.14
2023-05-05T00:51:29.869Z,101029.58
2023-05-05T00:56:31.899Z,101032.54
2023-05-05T01:01:33.743Z,101033.79
2023-05-05T01:06:43.958Z,101029.89
2023-05-05T01:11:55.462Z,101033.36
2023-05-05T01:17:28.762Z,101033.55
2023-05-05T01:22:41.684Z,101036.12
2023-05-05T01:27:55.832Z,101034.60
2023-05-05T01:33:10.726Z,101030.31
2023-05-05T01:38:17.202Z,101028.61
2023-05-05T01:43:21.260Z,101026.89
2023-05-05T01:48:24.632Z,101022.95
2023-05-05T01:53:27.695Z,101016.98
2023-05-05T01:58:32.557Z,101011.50
2023-05-05T02:03:37.782Z,101013.91
2023-05-05T02:08:41.099Z,101013.05
2023-05-05T02:13:44.364Z,101010.98
2023-05-05T02:18:47.417Z,101003.60
2023-05-05T02:23:51.929Z,101002.59
2023-05-05T02:29:18.818Z,101008.58
2023-05-05T02:34:26.702Z,101010.45
2023-05-05T02:39:35.863Z,101012.00
2023-05-05T02:44:41.425Z,101007.03
2023-05-05T02:49:43.284Z,101010.11
2023-05-05T02:54:44.815Z,101009.09
2023-05-05T03:00:13.856Z,101003.79
2023-05-05T03:05:24.655Z,101000.70
2023-05-05T03:10:30.147Z,100997.27
2023-05-05T03:15:37.714Z,100990.26
2023-05-05T03:20:39.951Z,100987.17
2023-05-05T03:25:45.897Z,100992.61
2023-05-05T03:30:48.217Z,100996.34
2023-05-05T03:35:49.695Z,100992.67
2023-05-05T03:40:51.172Z,100988.30
2023-05-05T03:45:52.787Z,100989.57
2023-05-05T03:50:54.351Z,100993.27
2023-05-05T03:55:55.860Z,100986.55
2023-05-05T04:00:57.574Z,100982.33
2023-05-05T04:05:59.137Z,100987.80
2023-05-05T04:11:02.575Z,100992.75
2023-05-05T04:16:04.860Z,100985.98
2023-05-05T04:21:06.434Z,100983.69
2023-05-05T04:26:08.026Z,100991.55
2023-05-05T04:31:10.833Z,100993.21
2023-05-05T04:36:12.464Z,100995.33
2023-05-05T04:41:14.019Z,100992.19
2023-05-05T04:46:15.986Z,100998.58
2023-05-05T04:51:17.540Z,101004.13
2023-05-05T04:56:19.061Z,101008.17
2023-05-05T05:01:20.800Z,101016.54
2023-05-05T05:06:22.418Z,101016.34
2023-05-05T05:11:23.940Z,101025.91
2023-05-05T05:16:25.683Z,101030.25
2023-05-05T05:21:27.715Z,101025.90
2023-05-05T05:26:29.272Z,101024.04
2023-05-05T05:31:31.525Z,101027.66
2023-05-05T05:36:33.375Z,101028.52
2023-05-05T05:41:34.885Z,101030.45
2023-05-05T05:46:36.427Z,101041.33
2023-05-05T05:51:37.962Z,101046.43
2023-05-05T05:56:39.504Z,101045.22
2023-05-05T06:01:41.404Z,101040.62
2023-05-05T06:06:42.912Z,101045.89
2023-05-05T06:11:44.489Z,101045.49
2023-05-05T06:16:45.978Z,101045.48
2023-05-05T06:21:48.951Z,101050.04
2023-05-05T06:26:50.587Z,101050.36
2023-05-05T06:31:52.206Z,101049.16
2023-05-05T06:36:53.772Z,101048.11
2023-05-05T06:41:55.596Z,101052.70
2023-05-05T06:46:57.278Z,101056.04
2023-05-05T06:51:58.835Z,101054.75
2023-05-05T06:57:00.305Z,101057.03
2023-05-05T07:02:01.898Z,101058.22
2023-05-05T07:07:03.429Z,101057.91
2023-05-05T07:12:05.141Z,101061.86
2023-05-05T07:17:06.695Z,101052.51
2023-05-05T07:22:08.256Z,101054.00
2023-05-05T07:27:09.832Z,101053.17
2023-05-05T07:32:21.789Z,101057.72
2023-05-05T07:37:26.691Z,101054.97
2023-05-05T07:42:28.245Z,101057.02
2023-05-05T07:47:30.294Z,101062.16
2023-05-05T07:52:44.999Z,101062.81
2023-05-05T07:57:49.982Z,101063.61
2023-05-05T08:02:51.598Z,101063.27
2023-05-05T08:07:53.800Z,101061.59
2023-05-05T08:12:55.836Z,101057.69
2023-05-05T08:17:57.490Z,101055.42
2023-05-05T08:22:59.361Z,101056.10
2023-05-05T08:28:01.206Z,101058.38
2023-05-05T08:33:02.739Z,101059.16
2023-05-05T08:38:04.282Z,101060.27
2023-05-05T08:43:06.157Z,101063.84
2023-05-05T08:48:08.947Z,101058.61
2023-05-05T08:53:16.643Z,101052.79
2023-05-05T08:58:19.545Z,101049.90
2023-05-05T09:03:21.578Z,101047.59
2023-05-05T09:08:23.280Z,101044.36
2023-05-05T09:13:24.954Z,101041.44
2023-05-05T09:18:26.810Z,101043.10
2023-05-05T09:23:28.358Z,101040.45
2023-05-05T09:28:30.189Z,101043.44
2023-05-05T09:33:31.937Z,101042.55
2023-05-05T09:38:36.574Z,101046.51
2023-05-05T09:43:52.559Z,101049.91
2023-05-05T09:48:54.391Z,101045.69
2023-05-05T09:53:56.823Z,101047.08
2023-05-05T09:59:11.926Z,101053.96
2023-05-05T10:04:28.096Z,101048.09
2023-05-05T10:09:31.807Z,101040.41
2023-05-05T10:14:34.273Z,101034.75
2023-05-05T10:19:37.148Z,101036.03
2023-05-05T10:24:47.244Z,101035.64
2023-05-05T10:29:59.089Z,101036.20
2023-05-05T10:35:02.815Z,101029.64
2023-05-05T10:40:05.986Z,101028.95
2023-05-05T10:45:08.710Z,101026.53
2023-05-05T10:50:27.214Z,101025.41
2023-05-05T10:55:36.525Z,101026.98
2023-05-05T11:00:41.550Z,101017.60
2023-05-05T11:06:05.690Z,101022.66
2023-05-05T11:11:10.440Z,101025.29
2023-05-05T11:16:45.877Z,101020.56
2023-05-05T11:22:00.812Z,101014.81
2023-05-05T11:27:03.332Z,101010.80
2023-05-05T11:32:11.747Z,101009.67
2023-05-05T11:37:13.505Z,101008.60
2023-05-05T11:42:25.739Z,101011.44
2023-05-05T11:47:29.221Z,101008.75
2023-05-05T11:52:30.919Z,101009.52
2023-05-05T11:57:32.493Z,101008.45
2023-05-05T12:02:35.110Z,101006.92
2023-05-05T12:07:37.003Z,101012.73
2023-05-05T12:12:40.563Z,101010.94
2023-05-05T12:17:45.194Z,101013.79
2023-05-05T12:22:46.986Z,101006.17
2023-05-05T12:27:53.171Z,101001.90
2023-05-05T12:33:08.340Z,101002.50
2023-05-05T12:38:10.471Z,101004.58
2023-05-05T12:43:25.054Z,101015.06
2023-05-05T12:48:26.675Z,101018.83
2023-05-05T12:53:28.248Z,101011.83
2023-05-05T12:58:32.775Z,101012.22
2023-05-05T13:03:34.400Z,101013.19
2023-05-05T13:08:43.572Z,101013.61
2023-05-05T13:13:45.093Z,101022.58
2023-05-05T13:18:50.652Z,101022.05
2023-05-05T13:23:52.129Z,101025.54
2023-05-05T13:28:54.089Z,101026.91
2023-05-05T13:33:55.779Z,101020.27
2023-05-05T13:38:57.407Z,101018.01
2023-05-05T13:43:58.886Z,101014.67
2023-05-05T13:49:00.381Z,101016.14
2023-05-05T13:54:02.145Z,101009.58
2023-05-05T13:59:03.743Z,101010.16
2023-05-05T14:04:06.056Z,101013.86
2023-05-05T14:09:08.189Z,101012.73
2023-05-05T14:14:09.721Z,101014.62
2023-05-05T14:19:11.221Z,101011.43
2023-05-05T14:24:12.790Z,101013.94
2023-05-05T14:29:14.304Z,101018.30
2023-05-05T14:34:15.862Z,101013.41
2023-05-05T14:39:17.479Z,101009.42
2023-05-05T14:44:19.007Z,101006.92
2023-05-05T14:49:20.572Z,101007.11
2023-05-05T14:54:27.942Z,101012.77
2023-05-05T14:59:30.829Z,101016.27
2023-05-05T15:04:32.379Z,101020.50
2023-05-05T15:09:33.958Z,101020.59
2023-05-05T15:14:36.787Z,101031.65
2023-05-05T15:19:38.361Z,101036.38
2023-05-05T15:24:39.998Z,101039.67
2023-05-05T15:29:41.548Z,101047.52
2023-05-05T15:34:44.879Z,101042.27
2023-05-05T15:39:46.404Z,101050.48
2023-05-05T15:44:48.018Z,101054.77
2023-05-05T15:49:49.611Z,101053.27
2023-05-05T15:54:51.259Z,101057.05
2023-05-05T15:59:53.571Z,101061.17
2023-05-05T16:04:55.262Z,101063.14
2023-05-05T16:09:57.140Z,101064.05
2023-05-05T16:14:59.086Z,101066.60
2023-05-05T16:20:00.756Z,101067.17
2023-05-05T16:25:02.372Z,101066.95
2023-05-05T16:30:04.576Z,101069.80
2023-05-05T16:35:07.763Z,101072.11
2023-05-05T16:40:10.665Z,101066.39
2023-05-05T16:45:12.249Z,101064.45
2023-05-05T16:50:13.828Z,101061.98
2023-05-05T16:55:15.542Z,101058.27
2023-05-05T17:00:23.631Z,101055.21
2023-05-05T17:05:25.391Z,101063.98
2023-05-05T17:10:27.511Z,101070.36
2023-05-05T17:15:29.119Z,101076.87
2023-05-05T17:20:31.157Z,101076.69
2023-05-05T17:25:32.702Z,101083.26
2023-05-05T17:30:35.067Z,101079.52
2023-05-05T17:35:37.717Z,101081.86
2023-05-05T17:40:39.223Z,101088.08
2023-05-05T17:45:42.291Z,101094.89
2023-05-05T17:50:43.789Z,101091.18
2023-05-05T17:55:46.056Z,101094.80
2023-05-05T18:00:47.927Z,101095.73
2023-05-05T18:05:49.428Z,101098.23
2023-05-05T18:10:51.017Z,101104.84
2023-05-05T18:15:52.681Z,101106.55
2023-05-05T18:20:54.262Z,101116.29
2023-05-05T18:25:55.825Z,101117.25
2023-05-05T18:30:57.439Z,101123.55
2023-05-05T18:35:59.031Z,101124.45
2023-05-05T18:41:00.506Z,101135.89
2023-05-05T18:46:02.575Z,101139.42
2023-05-05T18:51:04.965Z,101143.80
2023-05-05T18:56:07.167Z,101142.02
2023-05-05T19:01:08.688Z,101145.02
2023-05-05T19:06:10.266Z,101143.36
2023-05-05T19:11:11.875Z,101147.88
2023-05-05T19:16:13.520Z,101141.96
2023-05-05T19:21:15.098Z,101136.73
2023-05-05T19:26:16.625Z,101146.24
2023-05-05T19:31:18.231Z,101144.42
2023-05-05T19:36:19.868Z,101140.70
2023-05-05T19:41:21.508Z,101135.75
2023-05-05T19:46:25.593Z,101140.46
2023-05-05T19:51:27.326Z,101143.25
2023-05-05T19:56:28.844Z,101139.88
2023-05-05T20:01:30.589Z,101139.23
2023-05-05T20:06:33.109Z,101141.17
2023-05-05T20:11:35.550Z,101144.64
2023-05-05T20:16:37.257Z,101137.64
2023-05-05T20:21:38.929Z,101139.93
2023-05-05T20:26:40.426Z,101142.08
2023-05-05T20:31:42.516Z,101150.40
2023-05-05T20:36:44.206Z,101149.27
2023-05-05T20:41:46.686Z,101143.33
2023-05-05T20:46:48.292Z,101143.22
2023-05-05T20:51:50.018Z,101142.73
2023-05-05T20:56:53.167Z,101148.28
2023-05-05T21:01:58.355Z,101143.86
2023-05-05T21:06:59.862Z,101145.80
2023-05-05T21:12:02.467Z,101142.05
2023-05-05T21:17:04.041Z,101140.52
2023-05-05T21:22:05.711Z,101138.15
2023-05-05T21:27:07.213Z,101135.61
2023-05-05T21:32:10.259Z,101135.28
2023-05-05T21:37:12.149Z,101139.59
2023-05-05T21:42:13.628Z,101134.13
2023-05-05T21:47:16.435Z,101139.14
2023-05-05T21:52:17.980Z,101139.36
2023-05-05T21:57:19.938Z,101142.48
2023-05-05T22:02:21.440Z,101138.07
2023-05-05T22:07:24.210Z,101142.75
2023-05-05T22:12:25.772Z,101142.45
2023-05-05T22:17:27.266Z,101139.74
2023-05-05T22:22:28.744Z,101136.17
2023-05-05T22:27:30.230Z,101139.30
2023-05-05T22:32:32.285Z,101136.92
2023-05-05T22:37:33.826Z,101137.64
2023-05-05T22:42:35.659Z,101134.92
2023-05-05T22:47:37.411Z,101133.05
2023-05-05T22:52:39.183Z,101129.29
2023-05-05T22:57:41.726Z,101120.38
2023-05-05T23:02:43.256Z,101126.73
2023-05-05T23:07:44.792Z,101121.09
2023-05-05T23:12:46.520Z,101124.71
2023-05-05T23:17:48.379Z,101119.41
2023-05-05T23:22:50.028Z,101117.89
2023-05-05T23:27:51.580Z,101118.25
2023-05-05T23:32:53.121Z,101110.38
2023-05-05T23:37:54.708Z,101116.02
2023-05-05T23:47:57.739Z,101105.41
2023-05-05T23:52:59.518Z,101103.02
2023-05-05T23:58:01.218Z,101106.11
